Juist Airport

EDWJ · 下萨克森, 德国

罗盘
风向 的 风向 080° Juist Airport 6/24
风: 5 kt, 2 beaufort

5 kt

2 kt
改变
0 1.000 2.000 3.000 4.000 5.000
BKN 1.600 ft
OVC 2.100 ft
METAR EDWE 032250Z AUTO 08005KT 9999 // BKN016/// OVC021/// 01/M01 Q1021

METAR Juist Airport - EDWJ/JUI

Juist Airport是,德国中的小机场。 该机场有3条跑道: 6/24, 8/26 和 12/30. 该领域的国际民航组织标志是EDWJ 它的国际航空运输协会代码是JUI.

这份报告是针对2022年12月3日 23:50, 当地时间在Emden Airport进行的。

机场观察

风向为080°,速度为5 kt。

可见度为10 km 或者更多。

有碎云在1.600 ft的高度 和 乌云密布在2.100 ft的高度。 破损或更高的上限为1.600 ft。

温度为1 °C,阵风为-3 °C。 露点为-1 °C,相对湿度为87%。 海平面上的气压为1021 hPa (QNH)。

白天

今天,太阳从08:28升起,在16:14降落。 这适用于Juist Airport,世界夏令时可能有所不同。 当地时间与世界标准时间之间的时差为+1 小时。 当前,没有夏令时有效。

公司介绍

我们没有关于这个机场的公司信息。

体会

到Vliegles.nl去找飞行课程,跳伞和其他飞行体验。 浏览页面,了解Juist Airport附近所有可用的活动。 你也可以使用搜索功能来寻找你所在地附近的特定飞行课程、跳伞或其他飞行体验。

跑道

Id 标题 侧风 逆风 侧风 %
6/24 060°-240° 2 kt 5 kt 34 %
8/26 080°-260° 5 kt 0 %
12/30 120°-300° 3 kt 4 kt 64 %

逆风成分最大的方向会被突出显示,并用于横风计算。 这并不一定意味着这个方向在使用。

乌云

1.600 ft BKN 碎云
2.100 ft OVC 乌云密布

温度 & 天气

温度 1 °C
露点 -1 °C
相对湿度 87%
风寒 -3 °C
Kp-index 1 (0-9)

白天

日出
08:26 (8:25)
中午
12:20
日落
16:15

小工具

你想在你的网站上有一个关于Juist Airport的当前航空天气(METAR)的小部件吗?

显示HTML代码

我们和第三方通过cookies跟踪您在我们网站上的互联网行为。如果你继续,我们认为你同意我们的饼干政策